createdAt,value
2023-02-27T00:00:37.235Z,79.62
2023-02-27T00:02:09.243Z,79.54
2023-02-27T00:03:41.096Z,79.66
2023-02-27T00:05:13.076Z,79.68
2023-02-27T00:06:45.055Z,79.69
2023-02-27T00:08:16.902Z,79.99
2023-02-27T00:09:48.760Z,79.79
2023-02-27T00:11:20.630Z,79.92
2023-02-27T00:12:52.619Z,80.00
2023-02-27T00:14:24.448Z,79.70
2023-02-27T00:15:56.778Z,80.10
2023-02-27T00:17:30.016Z,80.27
2023-02-27T00:19:05.107Z,80.26
2023-02-27T00:22:10.609Z,80.66
2023-02-27T00:23:42.447Z,80.92
2023-02-27T00:25:14.657Z,80.70
2023-02-27T00:26:46.443Z,80.53
2023-02-27T00:28:18.301Z,80.33
2023-02-27T00:29:50.168Z,80.20
2023-02-27T00:31:22.004Z,80.15
2023-02-27T00:32:54.355Z,80.26
2023-02-27T00:34:26.302Z,80.48
2023-02-27T00:35:58.707Z,80.36
2023-02-27T00:37:30.630Z,80.55
2023-02-27T00:39:02.481Z,80.30
2023-02-27T00:40:36.318Z,80.30
2023-02-27T00:42:08.255Z,80.19
2023-02-27T00:43:40.134Z,80.35
2023-02-27T00:45:12.078Z,80.46
2023-02-27T00:46:44.331Z,80.63
2023-02-27T00:48:16.412Z,80.88
2023-02-27T00:49:48.406Z,81.38
2023-02-27T00:51:20.641Z,81.17
2023-02-27T00:52:52.459Z,80.90
2023-02-27T00:54:24.393Z,80.64
2023-02-27T00:55:56.251Z,80.30
2023-02-27T00:57:28.299Z,79.72
2023-02-27T00:59:00.137Z,79.53
2023-02-27T01:00:32.062Z,79.62
2023-02-27T01:02:03.915Z,79.52
2023-02-27T01:03:35.847Z,79.38
2023-02-27T01:05:07.838Z,79.56
2023-02-27T01:06:39.809Z,79.63
2023-02-27T01:08:11.638Z,79.84
2023-02-27T01:09:43.593Z,80.22
2023-02-27T01:11:15.460Z,80.45
2023-02-27T01:12:47.321Z,80.38
2023-02-27T01:14:19.262Z,80.27
2023-02-27T01:15:51.136Z,80.47
2023-02-27T01:17:23.028Z,80.36
2023-02-27T01:18:55.117Z,80.70
2023-02-27T01:20:27.009Z,80.55
2023-02-27T01:21:58.940Z,80.69
2023-02-27T01:23:30.892Z,80.79
2023-02-27T01:25:02.797Z,80.77
2023-02-27T01:26:34.788Z,80.63
2023-02-27T01:28:06.639Z,80.88
2023-02-27T01:29:38.461Z,80.95
2023-02-27T01:31:10.292Z,80.97
2023-02-27T01:32:42.342Z,81.09
2023-02-27T01:34:14.157Z,81.08
2023-02-27T01:35:45.978Z,80.98
2023-02-27T01:37:18.245Z,80.71
2023-02-27T01:38:50.150Z,80.49
2023-02-27T01:41:55.586Z,80.08
2023-02-27T01:43:27.630Z,80.09
2023-02-27T01:45:11.678Z,80.14
2023-02-27T01:46:43.996Z,80.46
2023-02-27T01:48:17.215Z,80.84
2023-02-27T01:49:49.064Z,80.93
2023-02-27T01:51:21.464Z,81.02
2023-02-27T01:52:54.565Z,80.88
2023-02-27T01:54:26.467Z,80.96
2023-02-27T01:56:04.769Z,80.47
2023-02-27T01:57:36.592Z,79.84
2023-02-27T01:59:08.665Z,79.81
2023-02-27T02:00:40.771Z,79.43
2023-02-27T02:02:15.364Z,79.00
2023-02-27T02:04:01.604Z,78.70
2023-02-27T02:05:33.425Z,78.30
2023-02-27T02:07:07.512Z,77.76
2023-02-27T02:08:42.487Z,77.44
2023-02-27T02:11:47.024Z,77.15
2023-02-27T02:13:19.405Z,77.11
2023-02-27T02:14:51.571Z,77.10
2023-02-27T02:16:35.668Z,76.89
2023-02-27T02:18:17.030Z,76.60
2023-02-27T02:20:00.700Z,76.10
2023-02-27T02:21:32.507Z,75.57
2023-02-27T02:23:04.299Z,75.30
2023-02-27T02:24:39.182Z,75.01
2023-02-27T02:26:14.241Z,74.75
2023-02-27T02:27:51.970Z,74.63
2023-02-27T02:29:42.834Z,74.48
2023-02-27T02:31:15.441Z,74.43
2023-02-27T02:33:06.094Z,74.04
2023-02-27T02:34:37.960Z,74.10
2023-02-27T02:36:24.924Z,74.22
2023-02-27T02:38:15.584Z,74.44
2023-02-27T02:40:13.827Z,75.27
2023-02-27T02:42:18.293Z,75.96
2023-02-27T02:43:52.884Z,75.93
2023-02-27T02:47:02.470Z,76.09
2023-02-27T02:48:52.986Z,76.88
2023-02-27T02:50:30.926Z,76.64
2023-02-27T02:52:11.173Z,77.04
2023-02-27T02:53:45.993Z,76.91
2023-02-27T02:55:25.443Z,77.05
2023-02-27T02:57:04.621Z,77.32
2023-02-27T02:58:38.536Z,77.68
2023-02-27T03:00:12.497Z,77.50
2023-02-27T03:01:46.233Z,77.32
2023-02-27T03:03:23.110Z,76.87
2023-02-27T03:04:59.106Z,76.54
2023-02-27T03:06:34.394Z,76.45
2023-02-27T03:08:11.418Z,76.25
2023-02-27T03:09:45.040Z,76.47
2023-02-27T03:11:16.819Z,76.97
2023-02-27T03:12:53.215Z,76.78
2023-02-27T03:14:27.864Z,76.81
2023-02-27T03:16:02.655Z,76.63
2023-02-27T03:17:39.140Z,75.63
2023-02-27T03:19:16.448Z,74.79
2023-02-27T03:20:53.058Z,73.85
2023-02-27T03:22:30.713Z,72.85
2023-02-27T03:24:03.681Z,72.77
2023-02-27T03:25:35.537Z,72.31
2023-02-27T03:27:07.959Z,71.99
2023-02-27T03:28:40.962Z,71.36
2023-02-27T03:30:29.980Z,71.61
2023-02-27T03:32:07.932Z,71.26
2023-02-27T03:33:40.871Z,71.59
2023-02-27T03:35:13.108Z,72.09
2023-02-27T03:36:49.574Z,72.33
2023-02-27T03:38:23.422Z,73.81
2023-02-27T03:39:57.194Z,74.83
2023-02-27T03:41:33.444Z,76.06
2023-02-27T03:43:23.288Z,76.46
2023-02-27T03:46:46.483Z,78.90
2023-02-27T03:48:18.433Z,79.88
2023-02-27T03:49:51.524Z,81.08
2023-02-27T03:51:24.388Z,81.66
2023-02-27T03:52:56.860Z,82.03
2023-02-27T03:54:30.830Z,82.43
2023-02-27T03:56:03.265Z,82.64
2023-02-27T03:57:38.713Z,83.44
2023-02-27T03:59:10.576Z,83.64
2023-02-27T04:00:42.539Z,84.08
2023-02-27T04:02:14.470Z,84.10
2023-02-27T04:04:06.672Z,84.39
2023-02-27T04:05:38.636Z,84.45
2023-02-27T04:07:33.586Z,84.42
2023-02-27T04:09:11.478Z,84.16
2023-02-27T04:11:09.433Z,83.91
2023-02-27T04:13:10.844Z,84.09
2023-02-27T04:14:49.646Z,84.31
2023-02-27T04:16:30.386Z,84.73
2023-02-27T04:18:02.527Z,84.96
2023-02-27T04:19:37.332Z,84.97
2023-02-27T04:21:24.484Z,84.97
2023-02-27T04:22:58.919Z,85.11
2023-02-27T04:24:30.836Z,85.57
2023-02-27T04:26:02.643Z,85.55
2023-02-27T04:27:34.465Z,85.48
2023-02-27T04:29:06.416Z,85.25
2023-02-27T04:30:46.117Z,85.01
2023-02-27T04:32:22.018Z,85.22
2023-02-27T04:33:53.957Z,85.69
2023-02-27T04:35:34.926Z,85.76
2023-02-27T04:37:17.975Z,85.61
2023-02-27T04:38:52.170Z,85.67
2023-02-27T04:40:33.642Z,85.61
2023-02-27T04:42:10.795Z,85.65
2023-02-27T04:43:42.605Z,85.75
2023-02-27T04:45:15.556Z,86.00
2023-02-27T04:46:47.687Z,86.16
2023-02-27T04:49:54.879Z,86.39
2023-02-27T04:51:28.504Z,86.48
2023-02-27T04:53:02.897Z,86.70
2023-02-27T04:54:49.852Z,86.41
2023-02-27T04:56:26.296Z,86.70
2023-02-27T04:58:00.156Z,87.34
2023-02-27T04:59:34.050Z,87.94
2023-02-27T05:01:08.260Z,88.48
2023-02-27T05:02:42.389Z,88.25
2023-02-27T05:04:15.692Z,88.51
2023-02-27T05:05:47.588Z,88.66
2023-02-27T05:07:20.283Z,88.51
2023-02-27T05:08:56.389Z,88.62
2023-02-27T05:10:28.234Z,88.73
2023-02-27T05:12:00.136Z,88.41
2023-02-27T05:13:39.501Z,88.25
2023-02-27T05:15:13.041Z,88.31
2023-02-27T05:17:14.094Z,88.65
2023-02-27T05:18:46.286Z,88.68
2023-02-27T05:20:18.367Z,89.19
2023-02-27T05:22:03.056Z,88.94
2023-02-27T05:23:40.333Z,88.18
2023-02-27T05:25:21.048Z,88.39
2023-02-27T05:27:03.921Z,88.52
2023-02-27T05:28:37.432Z,88.33
2023-02-27T05:30:32.550Z,88.41
2023-02-27T05:32:20.777Z,88.19
2023-02-27T05:33:55.778Z,88.12
2023-02-27T05:35:32.525Z,87.90
2023-02-27T05:37:24.758Z,87.62
2023-02-27T05:38:57.788Z,87.39
2023-02-27T05:40:37.855Z,87.38
2023-02-27T05:42:15.028Z,87.09
2023-02-27T05:43:48.155Z,86.60
2023-02-27T05:45:21.302Z,86.51
2023-02-27T05:46:54.373Z,86.25
2023-02-27T05:48:27.861Z,86.00
2023-02-27T05:50:05.729Z,85.90
2023-02-27T05:51:45.512Z,85.54
2023-02-27T05:53:17.950Z,85.46
2023-02-27T05:55:08.769Z,85.42
2023-02-27T05:56:40.894Z,85.18
2023-02-27T05:58:18.624Z,84.88
2023-02-27T05:59:52.613Z,84.47
2023-02-27T06:01:24.948Z,84.51
2023-02-27T06:02:56.852Z,84.66
2023-02-27T06:04:29.299Z,84.36
2023-02-27T06:06:02.092Z,84.07
2023-02-27T06:07:34.325Z,83.65
2023-02-27T06:09:06.180Z,83.68
2023-02-27T06:10:38.296Z,83.82
2023-02-27T06:12:10.162Z,83.53
2023-02-27T06:13:43.558Z,83.43
2023-02-27T06:15:15.672Z,83.55
2023-02-27T06:16:47.561Z,83.20
2023-02-27T06:18:19.701Z,83.37
2023-02-27T06:19:51.642Z,83.68
2023-02-27T06:21:28.396Z,83.19
2023-02-27T06:23:00.442Z,82.98
2023-02-27T06:24:32.468Z,82.78
2023-02-27T06:26:06.996Z,82.57
2023-02-27T06:27:38.937Z,82.35
2023-02-27T06:29:10.816Z,82.31
2023-02-27T06:30:43.920Z,82.39
2023-02-27T06:32:19.364Z,82.31
2023-02-27T06:33:51.165Z,82.30
2023-02-27T06:35:23.107Z,81.73
2023-02-27T06:36:55.047Z,81.84
2023-02-27T06:38:26.955Z,81.61
2023-02-27T06:39:59.195Z,82.16
2023-02-27T06:41:31.111Z,82.08
2023-02-27T06:43:02.903Z,81.03
2023-02-27T06:44:34.750Z,81.03
2023-02-27T06:46:06.670Z,81.07
2023-02-27T06:47:38.900Z,81.06
2023-02-27T06:49:10.788Z,80.99
2023-02-27T06:50:43.664Z,80.96
2023-02-27T06:52:15.613Z,81.40
2023-02-27T06:53:47.796Z,81.79
2023-02-27T06:55:21.254Z,81.96
2023-02-27T06:56:53.160Z,82.00
2023-02-27T06:58:25.569Z,82.13
2023-02-27T06:59:57.467Z,81.95
2023-02-27T07:01:29.417Z,81.87
2023-02-27T07:03:04.923Z,81.79
2023-02-27T07:04:36.757Z,81.38
2023-02-27T07:06:08.723Z,81.46
2023-02-27T07:07:40.727Z,81.33
2023-02-27T07:09:12.694Z,80.86
2023-02-27T07:10:47.374Z,80.15
2023-02-27T07:12:19.364Z,79.44
2023-02-27T07:13:51.294Z,80.30
2023-02-27T07:15:23.212Z,80.55
2023-02-27T07:16:55.190Z,80.58
2023-02-27T07:18:27.186Z,80.68
2023-02-27T07:19:59.061Z,80.37
2023-02-27T07:21:31.063Z,80.03
2023-02-27T07:23:03.109Z,79.82
2023-02-27T07:24:35.178Z,79.36
2023-02-27T07:26:07.105Z,79.07
2023-02-27T07:27:39.001Z,78.83
2023-02-27T07:29:10.924Z,79.01
2023-02-27T07:30:42.900Z,79.28
2023-02-27T07:32:14.887Z,78.95
2023-02-27T07:33:46.817Z,78.19
2023-02-27T07:35:19.875Z,78.72
2023-02-27T07:36:54.723Z,78.93
2023-02-27T07:38:26.832Z,78.82
2023-02-27T07:39:58.736Z,77.77
2023-02-27T07:41:31.267Z,77.25
2023-02-27T07:43:03.643Z,77.86
2023-02-27T07:44:35.571Z,77.92
2023-02-27T07:46:07.439Z,77.77
2023-02-27T07:47:39.313Z,77.65
2023-02-27T07:49:11.350Z,77.58
2023-02-27T07:50:43.296Z,76.58
2023-02-27T07:52:15.174Z,75.52
2023-02-27T07:53:47.175Z,75.32
2023-02-27T07:55:19.208Z,74.73
2023-02-27T07:56:51.062Z,75.34
2023-02-27T07:58:23.004Z,75.64
2023-02-27T07:59:55.006Z,75.44
2023-02-27T08:01:27.546Z,74.89
2023-02-27T08:03:00.748Z,75.04
2023-02-27T08:04:32.778Z,74.71
2023-02-27T08:06:04.867Z,74.26
2023-02-27T08:07:37.019Z,73.42
2023-02-27T08:09:09.050Z,73.27
2023-02-27T08:10:40.935Z,73.83
2023-02-27T09:05:50.739Z,71.43
2023-02-27T09:07:22.606Z,72.19
2023-02-27T09:08:54.480Z,70.98
2023-02-27T09:10:26.350Z,70.56
2023-02-27T09:11:58.297Z,70.29
2023-02-27T09:13:30.404Z,71.01
2023-02-27T09:15:02.258Z,68.97
2023-02-27T09:16:34.188Z,69.27
2023-02-27T09:18:07.465Z,67.88
2023-02-27T09:19:39.428Z,66.29
2023-02-27T09:21:11.338Z,66.50
2023-02-27T09:22:43.497Z,69.39
2023-02-27T09:24:20.341Z,70.62
2023-02-27T09:25:52.753Z,70.67
2023-02-27T09:27:24.752Z,70.47
2023-02-27T09:28:56.656Z,69.23
2023-02-27T09:30:28.666Z,68.78
2023-02-27T09:32:00.666Z,68.90
2023-02-27T09:33:33.021Z,68.58
2023-02-27T09:35:05.163Z,68.27
2023-02-27T09:36:37.055Z,67.98
2023-02-27T09:38:08.970Z,68.17
2023-02-27T09:39:40.837Z,68.52
2023-02-27T09:41:41.934Z,67.02
2023-02-27T09:43:17.728Z,67.17
2023-02-27T09:44:53.011Z,67.33
2023-02-27T09:46:25.963Z,66.38
2023-02-27T09:48:01.719Z,66.47
2023-02-27T09:51:08.910Z,67.15
2023-02-27T09:52:40.973Z,68.11
2023-02-27T09:54:12.907Z,67.67
2023-02-27T09:55:45.019Z,68.40
2023-02-27T09:57:19.250Z,65.76
2023-02-27T09:58:53.888Z,66.01
2023-02-27T10:00:44.622Z,63.06
2023-02-27T10:02:22.588Z,63.47
2023-02-27T10:04:10.129Z,64.72
2023-02-27T10:05:43.040Z,65.85
2023-02-27T10:07:30.291Z,63.78
2023-02-27T10:09:11.411Z,64.65
2023-02-27T10:10:46.106Z,62.25
2023-02-27T10:12:24.161Z,65.42
2023-02-27T10:14:19.456Z,63.73
2023-02-27T10:15:52.324Z,65.27
2023-02-27T10:17:24.907Z,63.67
2023-02-27T10:18:58.519Z,61.02
2023-02-27T10:20:34.509Z,62.52
2023-02-27T10:22:11.437Z,62.17
2023-02-27T10:23:46.358Z,61.46
2023-02-27T10:25:30.747Z,62.56
2023-02-27T10:27:06.210Z,62.68
2023-02-27T10:28:38.098Z,62.45
2023-02-27T10:30:29.475Z,61.10
2023-02-27T10:32:02.870Z,62.60
2023-02-27T10:33:38.134Z,61.77
2023-02-27T10:35:11.255Z,61.03
2023-02-27T10:36:44.188Z,61.07
2023-02-27T10:38:18.037Z,61.93
2023-02-27T10:39:57.342Z,62.75
2023-02-27T10:41:29.626Z,62.41
2023-02-27T10:43:01.873Z,62.87
2023-02-27T10:44:34.522Z,61.79
2023-02-27T10:46:16.647Z,61.29
2023-02-27T10:47:48.599Z,61.64
2023-02-27T10:49:21.535Z,61.02
2023-02-27T10:50:53.393Z,63.40
2023-02-27T10:52:25.248Z,61.30
2023-02-27T10:54:17.541Z,62.00
2023-02-27T10:55:58.674Z,61.28
2023-02-27T10:57:31.680Z,59.97
2023-02-27T10:59:07.110Z,61.49
2023-02-27T11:00:41.212Z,62.94
2023-02-27T11:02:16.237Z,61.14
2023-02-27T11:03:49.146Z,61.67
2023-02-27T11:05:26.066Z,61.62
2023-02-27T11:06:58.194Z,61.43
2023-02-27T11:08:30.828Z,60.80
2023-02-27T11:10:14.872Z,62.24
2023-02-27T11:11:46.811Z,63.20
2023-02-27T11:13:22.025Z,62.58
2023-02-27T11:14:55.014Z,61.56
2023-02-27T11:16:27.196Z,61.60
2023-02-27T11:18:17.456Z,61.19
2023-02-27T11:19:50.203Z,61.36
2023-02-27T11:21:27.742Z,60.44
2023-02-27T11:24:45.185Z,59.47
2023-02-27T11:26:18.476Z,60.60
2023-02-27T11:27:52.412Z,59.38
2023-02-27T11:29:24.326Z,60.33
2023-02-27T11:31:06.422Z,61.96
2023-02-27T11:32:41.074Z,62.32
2023-02-27T11:34:18.817Z,61.43
2023-02-27T11:35:51.483Z,61.29
2023-02-27T11:37:31.525Z,62.21
2023-02-27T11:39:03.551Z,61.80
2023-02-27T11:40:39.328Z,60.78
2023-02-27T11:42:17.459Z,60.76
2023-02-27T11:43:52.902Z,62.33
2023-02-27T11:46:09.321Z,59.95
2023-02-27T11:47:21.996Z,61.27
2023-02-27T11:48:56.708Z,62.51
2023-02-27T11:50:40.229Z,62.96
2023-02-27T11:52:17.517Z,62.62
2023-02-27T11:54:04.982Z,63.62
2023-02-27T11:55:36.909Z,61.79
2023-02-27T11:57:09.019Z,60.57
2023-02-27T11:58:45.875Z,59.45
2023-02-27T12:00:27.723Z,60.56
2023-02-27T12:02:18.425Z,60.12
2023-02-27T12:04:02.729Z,60.18
2023-02-27T12:05:47.714Z,59.67
2023-02-27T12:07:19.678Z,59.36
2023-02-27T12:08:54.664Z,58.22
2023-02-27T12:10:29.383Z,58.73
2023-02-27T12:12:02.220Z,60.13
2023-02-27T12:13:35.935Z,61.07
2023-02-27T12:15:15.749Z,61.25
2023-02-27T12:16:54.568Z,60.90
2023-02-27T12:18:31.076Z,59.54
2023-02-27T12:20:08.079Z,59.33
2023-02-27T12:21:40.947Z,59.97
2023-02-27T12:24:47.890Z,60.20
2023-02-27T12:26:22.346Z,59.27
2023-02-27T12:28:00.424Z,58.85
2023-02-27T12:29:33.870Z,58.24
2023-02-27T12:31:14.953Z,57.55
2023-02-27T12:33:10.190Z,58.47
2023-02-27T12:34:43.643Z,58.22
2023-02-27T12:36:15.754Z,57.82
2023-02-27T12:37:47.578Z,57.90
2023-02-27T12:39:23.572Z,58.67
2023-02-27T12:41:14.023Z,58.75
2023-02-27T12:42:58.091Z,58.43
2023-02-27T12:44:42.243Z,58.35
2023-02-27T12:46:14.361Z,60.18
2023-02-27T12:48:18.597Z,58.92
2023-02-27T12:50:13.471Z,59.07
2023-02-27T12:53:24.242Z,58.46
2023-02-27T12:55:02.262Z,58.07
2023-02-27T12:56:52.558Z,58.28
2023-02-27T12:58:27.293Z,58.65
2023-02-27T13:00:11.280Z,58.94
2023-02-27T13:01:48.823Z,60.37
2023-02-27T13:03:40.342Z,61.31
2023-02-27T13:05:12.395Z,62.34
2023-02-27T13:06:52.990Z,61.83
2023-02-27T13:08:45.165Z,61.31
2023-02-27T13:10:23.454Z,61.85
2023-02-27T13:12:01.232Z,60.95
2023-02-27T13:13:42.561Z,60.16
2023-02-27T13:15:22.603Z,62.67
2023-02-27T13:16:58.217Z,61.99
2023-02-27T13:18:39.097Z,61.84
2023-02-27T13:20:20.078Z,61.94
2023-02-27T13:21:53.560Z,61.87
2023-02-27T13:23:43.646Z,62.41
2023-02-27T13:25:15.951Z,63.00
2023-02-27T13:26:49.814Z,62.54
2023-02-27T13:28:23.998Z,61.99
2023-02-27T13:30:01.648Z,62.54
2023-02-27T13:31:37.360Z,63.68
2023-02-27T13:33:32.397Z,63.76
2023-02-27T13:35:07.870Z,63.19
2023-02-27T13:36:47.365Z,63.65
2023-02-27T13:38:42.344Z,62.26
2023-02-27T13:40:30.847Z,62.85
2023-02-27T13:42:02.773Z,62.82
2023-02-27T13:43:51.458Z,62.54
2023-02-27T13:45:42.246Z,62.48
2023-02-27T13:47:29.269Z,62.83
2023-02-27T13:49:04.070Z,62.46
2023-02-27T13:50:36.028Z,63.01
2023-02-27T13:52:07.948Z,63.82
2023-02-27T13:53:40.237Z,62.80
2023-02-27T13:55:32.140Z,62.56
2023-02-27T13:57:04.037Z,62.67
2023-02-27T13:58:35.938Z,63.09
2023-02-27T14:00:17.330Z,62.52
2023-02-27T14:01:52.582Z,62.67
2023-02-27T14:03:26.315Z,62.69
2023-02-27T14:04:58.587Z,63.04
2023-02-27T14:06:30.542Z,63.30
2023-02-27T14:08:09.505Z,62.78
2023-02-27T14:09:41.926Z,63.35
2023-02-27T14:11:20.995Z,63.55
2023-02-27T14:12:53.461Z,63.07
2023-02-27T14:14:54.562Z,63.63
2023-02-27T14:16:38.862Z,63.36
2023-02-27T14:18:34.097Z,63.60
2023-02-27T14:20:30.767Z,62.94
2023-02-27T14:22:04.313Z,63.44
2023-02-27T14:23:36.375Z,63.52
2023-02-27T14:25:17.080Z,63.50
2023-02-27T14:26:49.003Z,62.96
2023-02-27T14:28:23.766Z,62.98
2023-02-27T14:29:57.110Z,64.26
2023-02-27T14:31:35.395Z,64.06
2023-02-27T14:33:39.736Z,63.72
2023-02-27T14:35:12.551Z,63.50
2023-02-27T14:36:45.325Z,63.03
2023-02-27T14:38:17.495Z,63.01
2023-02-27T14:39:51.155Z,63.66
2023-02-27T14:41:22.965Z,63.46
2023-02-27T14:43:04.886Z,64.42
2023-02-27T14:44:38.129Z,64.65
2023-02-27T14:46:15.539Z,64.87
2023-02-27T14:47:47.528Z,64.84
2023-02-27T14:49:21.925Z,64.76
2023-02-27T14:52:31.302Z,64.02
2023-02-27T14:54:03.237Z,63.62
2023-02-27T14:55:35.735Z,63.65
2023-02-27T14:57:07.833Z,64.04
2023-02-27T14:58:39.749Z,63.86
2023-02-27T15:00:29.291Z,64.00
2023-02-27T15:02:07.470Z,63.40
2023-02-27T15:03:46.739Z,63.19
2023-02-27T15:05:20.240Z,63.41
2023-02-27T15:06:54.776Z,63.82
2023-02-27T15:08:31.454Z,63.92
2023-02-27T15:10:05.072Z,64.10
2023-02-27T15:11:41.086Z,64.04
2023-02-27T15:13:31.389Z,63.70
2023-02-27T15:15:03.757Z,63.36
2023-02-27T15:16:36.296Z,64.34
2023-02-27T15:18:12.712Z,64.00
2023-02-27T15:19:51.401Z,64.64
2023-02-27T15:21:24.961Z,63.77
2023-02-27T15:22:57.788Z,64.24
2023-02-27T15:24:35.267Z,64.02
2023-02-27T15:26:13.439Z,64.72
2023-02-27T15:27:45.297Z,64.26
2023-02-27T15:29:18.745Z,65.00
2023-02-27T15:30:54.396Z,65.11
2023-02-27T15:32:33.279Z,65.53
2023-02-27T15:34:05.227Z,65.25
2023-02-27T15:35:37.491Z,65.25
2023-02-27T15:37:09.365Z,64.43
2023-02-27T15:38:41.236Z,64.93
2023-02-27T15:40:15.512Z,65.10
2023-02-27T15:41:49.013Z,65.01
2023-02-27T15:43:21.004Z,64.94
2023-02-27T15:44:53.721Z,64.69
2023-02-27T15:46:26.256Z,64.71
2023-02-27T15:47:58.211Z,64.67
2023-02-27T15:49:30.113Z,64.98
2023-02-27T15:51:03.239Z,64.77
2023-02-27T15:52:47.107Z,64.40
2023-02-27T15:54:21.276Z,64.25
2023-02-27T15:55:57.092Z,64.54
2023-02-27T15:57:30.877Z,65.04
2023-02-27T15:59:02.785Z,66.01
2023-02-27T16:00:34.839Z,66.24
2023-02-27T16:02:07.157Z,67.03
2023-02-27T16:03:40.434Z,67.55
2023-02-27T16:05:15.948Z,68.17
2023-02-27T16:06:48.917Z,70.58
2023-02-27T16:08:20.780Z,71.01
2023-02-27T16:11:27.102Z,71.46
2023-02-27T16:12:58.983Z,72.25
2023-02-27T16:14:37.350Z,74.01
2023-02-27T16:16:20.977Z,75.89
2023-02-27T16:18:02.387Z,76.71
2023-02-27T16:19:34.449Z,77.10
2023-02-27T16:21:13.725Z,77.06
2023-02-27T16:23:01.355Z,77.55
2023-02-27T16:24:33.973Z,78.23
2023-02-27T16:26:21.333Z,78.70
2023-02-27T16:27:53.337Z,79.13
2023-02-27T16:29:36.104Z,79.47
2023-02-27T16:31:13.798Z,79.91
2023-02-27T16:32:45.780Z,80.77
2023-02-27T16:34:26.143Z,81.39
2023-02-27T16:36:06.072Z,81.53
2023-02-27T16:37:39.089Z,82.18
2023-02-27T16:39:13.813Z,82.36
2023-02-27T16:40:46.548Z,82.31
2023-02-27T16:42:18.520Z,82.61
2023-02-27T16:43:51.080Z,82.75
2023-02-27T16:45:24.542Z,82.94
2023-02-27T16:46:57.190Z,83.19
2023-02-27T16:48:29.102Z,84.10
2023-02-27T16:50:01.163Z,84.74
2023-02-27T16:51:37.649Z,85.37
2023-02-27T16:53:09.564Z,85.83
2023-02-27T16:54:42.521Z,86.22
2023-02-27T16:56:15.096Z,86.46
2023-02-27T16:57:47.012Z,86.84
2023-02-27T16:59:35.335Z,86.76
2023-02-27T17:01:07.314Z,86.62
2023-02-27T17:02:39.309Z,86.77
2023-02-27T17:04:25.276Z,86.77
2023-02-27T17:05:58.324Z,87.01
2023-02-27T17:07:30.936Z,87.05
2023-02-27T17:09:02.969Z,87.50
2023-02-27T17:10:35.189Z,87.67
2023-02-27T17:12:07.126Z,87.65
2023-02-27T17:13:39.089Z,88.11
2023-02-27T17:15:11.042Z,87.97
2023-02-27T17:16:43.054Z,88.29
2023-02-27T17:18:15.387Z,88.39
2023-02-27T17:19:47.282Z,88.42
2023-02-27T17:21:19.151Z,88.28
2023-02-27T17:22:51.023Z,88.57
2023-02-27T17:24:22.921Z,88.71
2023-02-27T17:25:56.129Z,88.78
2023-02-27T17:27:27.971Z,88.77
2023-02-27T17:29:00.176Z,88.95
2023-02-27T17:30:32.204Z,88.99
2023-02-27T17:32:04.401Z,89.10
2023-02-27T17:33:36.432Z,89.47
2023-02-27T17:35:09.284Z,89.69
2023-02-27T17:36:41.186Z,89.78
2023-02-27T17:38:13.143Z,89.79
2023-02-27T17:39:45.057Z,89.65
2023-02-27T17:41:17.210Z,89.64
2023-02-27T17:42:49.197Z,89.70
2023-02-27T17:44:21.189Z,89.44
2023-02-27T17:45:53.055Z,89.46
2023-02-27T17:47:24.960Z,89.56
2023-02-27T17:49:00.844Z,89.59
2023-02-27T17:50:32.707Z,89.87
2023-02-27T17:52:04.554Z,89.83
2023-02-27T17:53:36.620Z,89.87
2023-02-27T17:56:42.352Z,90.11
2023-02-27T17:58:14.363Z,90.00
2023-02-27T17:59:46.173Z,90.05
2023-02-27T18:01:21.798Z,90.09
2023-02-27T18:02:53.686Z,90.44
2023-02-27T18:04:25.702Z,90.56
2023-02-27T18:06:00.306Z,90.98
2023-02-27T18:07:32.509Z,91.02
2023-02-27T18:09:04.883Z,90.98
2023-02-27T18:10:37.226Z,91.21
2023-02-27T18:12:09.239Z,91.17
2023-02-27T18:13:41.394Z,91.42
2023-02-27T18:15:13.787Z,91.34
2023-02-27T18:16:45.720Z,91.39
2023-02-27T18:18:18.039Z,91.58
2023-02-27T18:19:49.942Z,91.69
2023-02-27T18:21:23.089Z,91.81
2023-02-27T18:22:54.963Z,91.85
2023-02-27T18:24:29.937Z,91.67
2023-02-27T18:26:01.897Z,92.00
2023-02-27T18:27:33.773Z,92.08
2023-02-27T18:29:10.431Z,92.36
2023-02-27T18:30:42.317Z,92.38
2023-02-27T18:32:14.267Z,92.42
2023-02-27T18:33:46.145Z,92.48
2023-02-27T18:35:18.098Z,92.24
2023-02-27T18:36:50.181Z,92.35
2023-02-27T18:38:22.211Z,92.51
2023-02-27T18:39:54.170Z,92.23
2023-02-27T18:41:26.392Z,92.40
2023-02-27T18:42:58.420Z,92.37
2023-02-27T18:44:30.324Z,92.08
2023-02-27T18:46:02.590Z,92.06
2023-02-27T18:47:34.485Z,92.01
2023-02-27T18:49:06.552Z,91.96
2023-02-27T18:50:38.447Z,91.84
2023-02-27T18:52:10.433Z,92.01
2023-02-27T18:53:44.572Z,91.68
2023-02-27T18:56:56.962Z,91.89
2023-02-27T18:58:28.914Z,91.89
2023-02-27T19:00:00.813Z,91.67
2023-02-27T19:01:34.015Z,91.54
2023-02-27T19:03:06.140Z,91.54
2023-02-27T19:04:38.074Z,91.46
2023-02-27T19:06:10.084Z,91.79
2023-02-27T19:07:42.816Z,91.93
2023-02-27T19:09:16.583Z,91.82
2023-02-27T19:10:48.511Z,92.07
2023-02-27T19:12:20.439Z,91.82
2023-02-27T19:13:52.795Z,91.73
2023-02-27T19:15:24.966Z,91.86
2023-02-27T19:17:00.679Z,91.60
2023-02-27T19:18:32.539Z,91.54
2023-02-27T19:20:06.653Z,91.42
2023-02-27T19:21:38.815Z,91.67
2023-02-27T19:23:10.839Z,91.59
2023-02-27T19:24:42.985Z,91.81
2023-02-27T19:26:15.612Z,91.66
2023-02-27T19:27:47.606Z,91.63
2023-02-27T19:29:19.615Z,91.70
2023-02-27T19:30:51.601Z,91.53
2023-02-27T19:32:23.772Z,91.43
2023-02-27T19:33:55.959Z,91.55
2023-02-27T19:35:27.829Z,91.53
2023-02-27T19:36:59.652Z,91.46
2023-02-27T19:38:31.530Z,91.63
2023-02-27T19:40:04.417Z,91.78
2023-02-27T19:41:36.235Z,91.63
2023-02-27T19:43:08.183Z,91.59
2023-02-27T19:44:40.856Z,91.38
2023-02-27T19:46:17.093Z,91.26
2023-02-27T19:47:49.040Z,91.54
2023-02-27T19:49:20.928Z,91.46
2023-02-27T19:50:52.836Z,91.68
2023-02-27T19:52:24.830Z,92.00
2023-02-27T19:53:57.168Z,92.07
2023-02-27T19:55:28.983Z,92.07
2023-02-27T19:57:00.885Z,92.65
2023-02-27T19:58:33.884Z,92.43
2023-02-27T20:00:09.255Z,92.81
2023-02-27T20:01:41.792Z,92.80
2023-02-27T20:03:16.380Z,93.06
2023-02-27T20:04:48.195Z,92.98
2023-02-27T20:06:21.322Z,93.00
2023-02-27T20:07:53.384Z,93.00
2023-02-27T20:09:26.056Z,93.21
2023-02-27T20:10:58.666Z,93.12
2023-02-27T20:12:30.574Z,92.98
2023-02-27T20:14:03.352Z,92.99
2023-02-27T20:15:36.128Z,93.21
2023-02-27T20:17:08.452Z,93.09
2023-02-27T20:18:41.739Z,93.33
2023-02-27T20:20:16.922Z,93.26
2023-02-27T20:21:49.197Z,93.33
2023-02-27T20:23:21.199Z,93.38
2023-02-27T20:24:55.820Z,93.38
2023-02-27T20:26:29.666Z,93.41
2023-02-27T20:28:01.739Z,93.19
2023-02-27T20:29:33.870Z,92.97
2023-02-27T20:31:10.075Z,93.03
2023-02-27T20:32:41.991Z,92.76
2023-02-27T20:34:16.165Z,92.65
2023-02-27T20:35:48.114Z,92.54
2023-02-27T20:37:20.067Z,92.75
2023-02-27T20:40:29.133Z,92.45
2023-02-27T20:42:01.115Z,92.69
2023-02-27T20:43:33.405Z,92.85
2023-02-27T20:45:05.698Z,92.92
2023-02-27T20:46:38.668Z,93.01
2023-02-27T20:48:10.545Z,92.95
2023-02-27T20:49:42.371Z,93.12
2023-02-27T20:51:21.651Z,93.10
2023-02-27T20:52:54.208Z,92.96
2023-02-27T20:54:26.073Z,92.76
2023-02-27T20:55:57.876Z,92.56
2023-02-27T20:57:30.013Z,92.38
2023-02-27T20:59:02.451Z,92.58
2023-02-27T21:00:34.268Z,92.64
2023-02-27T21:02:08.796Z,92.40
2023-02-27T21:03:41.289Z,92.27
2023-02-27T21:05:13.491Z,92.28
2023-02-27T21:06:46.653Z,92.04
2023-02-27T21:08:18.772Z,91.96
2023-02-27T21:09:51.074Z,91.94
2023-02-27T21:11:25.911Z,92.07
2023-02-27T21:12:58.115Z,91.89
2023-02-27T21:14:29.915Z,91.72
2023-02-27T21:16:01.836Z,91.77
2023-02-27T21:17:33.756Z,91.81
2023-02-27T21:19:05.666Z,91.79
2023-02-27T21:20:39.455Z,91.77
2023-02-27T21:22:11.531Z,91.66
2023-02-27T21:23:43.877Z,91.28
2023-02-27T21:25:15.995Z,91.38
2023-02-27T21:26:48.094Z,91.31
2023-02-27T21:28:20.058Z,90.97
2023-02-27T21:29:51.911Z,91.24
2023-02-27T21:31:24.623Z,90.89
2023-02-27T21:32:57.157Z,90.86
2023-02-27T21:34:29.124Z,90.83
2023-02-27T21:36:01.010Z,90.85
2023-02-27T21:37:33.113Z,90.72
2023-02-27T21:39:06.458Z,90.84
2023-02-27T21:40:38.308Z,90.95
2023-02-27T21:42:10.145Z,91.08